createdAt,value
2019-05-13T00:00:13.995Z,3.00
2019-05-13T00:05:18.183Z,3.50
2019-05-13T00:10:24.327Z,3.60
2019-05-13T00:15:29.213Z,3.87
2019-05-13T00:20:34.167Z,3.60
2019-05-13T00:25:38.910Z,4.30
2019-05-13T00:30:44.468Z,4.73
2019-05-13T00:35:49.412Z,4.23
2019-05-13T00:40:54.665Z,4.40
2019-05-13T00:45:59.416Z,4.20
2019-05-13T00:51:04.103Z,4.00
2019-05-13T00:56:09.210Z,3.87
2019-05-13T01:01:14.019Z,4.07
2019-05-13T01:06:18.800Z,6.87
2019-05-13T01:11:23.796Z,6.10
2019-05-13T01:16:28.382Z,5.10
2019-05-13T01:21:34.517Z,4.70
2019-05-13T01:26:39.520Z,4.00
2019-05-13T01:31:44.070Z,3.93
2019-05-13T01:36:48.696Z,4.20
2019-05-13T01:41:54.042Z,3.93
2019-05-13T01:46:59.101Z,4.60
2019-05-13T01:52:04.150Z,4.13
2019-05-13T01:57:09.111Z,4.23
2019-05-13T02:02:13.964Z,3.90
2019-05-13T02:07:18.690Z,4.50
2019-05-13T02:12:24.038Z,4.73
2019-05-13T02:17:28.883Z,4.33
2019-05-13T02:22:33.746Z,7.50
2019-05-13T02:27:38.480Z,17.60
2019-05-13T02:32:43.332Z,16.50
2019-05-13T02:37:48.175Z,16.20
2019-05-13T02:42:52.731Z,17.17
2019-05-13T02:47:57.426Z,17.80
2019-05-13T02:53:02.547Z,17.47
2019-05-13T02:58:07.352Z,15.30
2019-05-13T03:03:13.107Z,13.77
2019-05-13T03:08:34.012Z,12.37
2019-05-13T03:13:24.409Z,10.97
2019-05-13T03:18:33.107Z,9.60
2019-05-13T03:23:35.270Z,6.43
2019-05-13T03:28:43.166Z,6.03
2019-05-13T03:33:47.656Z,6.20
2019-05-13T03:39:05.712Z,5.20
2019-05-13T03:44:02.326Z,4.97
2019-05-13T03:49:05.338Z,4.53
2019-05-13T03:54:12.929Z,6.90
2019-05-13T03:59:17.683Z,6.07
2019-05-13T04:04:23.499Z,11.47
2019-05-13T04:09:32.620Z,10.17
2019-05-13T04:14:36.224Z,10.13
2019-05-13T04:19:42.359Z,9.40
2019-05-13T04:24:49.246Z,11.73
2019-05-13T04:29:54.338Z,10.00
2019-05-13T04:34:59.078Z,9.33
2019-05-13T04:40:05.663Z,8.57
2019-05-13T04:45:13.394Z,7.37
2019-05-13T04:50:16.577Z,7.90
2019-05-13T04:55:22.968Z,6.77
2019-05-13T05:01:08.525Z,7.07
2019-05-13T05:06:14.439Z,8.37
2019-05-13T05:11:38.743Z,8.93
2019-05-13T05:17:16.210Z,8.10
2019-05-13T05:22:39.221Z,6.53
2019-05-13T05:27:58.257Z,6.30
2019-05-13T05:33:31.946Z,5.67
2019-05-13T05:39:06.466Z,5.97
2019-05-13T05:44:12.510Z,5.90
2019-05-13T05:49:17.384Z,5.70
2019-05-13T05:54:22.132Z,6.27
2019-05-13T05:59:26.870Z,5.50
2019-05-13T06:04:32.516Z,6.23
2019-05-13T06:09:37.382Z,6.53
2019-05-13T06:14:42.409Z,6.37
2019-05-13T06:19:47.286Z,5.73
2019-05-13T06:24:52.278Z,4.37
2019-05-13T06:29:57.279Z,5.03
2019-05-13T06:35:02.567Z,4.93
2019-05-13T06:40:09.026Z,5.23
2019-05-13T06:45:13.763Z,5.43
2019-05-13T06:50:18.509Z,5.40
2019-05-13T06:55:23.864Z,6.40
2019-05-13T07:00:28.492Z,7.50
2019-05-13T07:05:33.250Z,8.47
2019-05-13T07:10:41.260Z,7.30
2019-05-13T07:15:46.576Z,7.43
2019-05-13T07:20:53.031Z,7.17
2019-05-13T07:25:57.550Z,7.43
2019-05-13T07:31:03.834Z,8.00
2019-05-13T07:36:12.436Z,7.40
2019-05-13T07:41:14.853Z,7.10
2019-05-13T07:46:21.633Z,7.50
2019-05-13T07:51:25.867Z,4.87
2019-05-13T07:56:32.427Z,6.03
2019-05-13T08:01:36.899Z,5.57
2019-05-13T08:06:41.750Z,5.00
2019-05-13T08:12:04.315Z,5.20
2019-05-13T08:16:52.869Z,4.60
2019-05-13T08:21:57.615Z,4.90
2019-05-13T08:27:02.574Z,4.37
2019-05-13T08:32:07.778Z,3.70
2019-05-13T08:37:13.512Z,3.57
2019-05-13T08:42:20.109Z,3.37
2019-05-13T08:47:24.748Z,3.43
2019-05-13T08:52:31.402Z,3.60
2019-05-13T08:57:35.626Z,3.60
2019-05-13T09:02:42.026Z,3.63
2019-05-13T09:07:47.020Z,3.80
2019-05-13T09:12:52.343Z,4.13
2019-05-13T09:17:57.393Z,4.93
2019-05-13T09:23:02.218Z,3.27
2019-05-13T09:28:06.958Z,3.43
2019-05-13T09:33:11.732Z,3.50
2019-05-13T09:38:16.575Z,3.40
2019-05-13T09:43:22.153Z,3.80
2019-05-13T09:48:27.171Z,3.60
2019-05-13T09:53:32.705Z,3.00
2019-05-13T09:58:37.804Z,3.10
2019-05-13T10:03:53.827Z,3.90
2019-05-13T10:08:49.019Z,3.47
2019-05-13T10:13:55.600Z,3.60
2019-05-13T10:19:01.655Z,4.13
2019-05-13T10:24:06.831Z,5.40
2019-05-13T10:29:12.601Z,3.90
2019-05-13T10:34:17.342Z,3.60
2019-05-13T10:39:22.566Z,4.10
2019-05-13T10:44:27.545Z,4.90
2019-05-13T10:49:33.044Z,5.10
2019-05-13T10:54:38.118Z,4.03
2019-05-13T10:59:43.642Z,4.37
2019-05-13T11:04:48.690Z,4.33
2019-05-13T11:09:53.423Z,4.70
2019-05-13T11:14:58.163Z,4.17
2019-05-13T11:20:03.667Z,4.70
2019-05-13T11:25:08.675Z,4.63
2019-05-13T11:30:13.415Z,5.33
2019-05-13T11:35:19.500Z,4.30
2019-05-13T11:40:24.340Z,3.80
2019-05-13T11:45:31.576Z,3.77
2019-05-13T11:50:36.487Z,4.03
2019-05-13T11:55:42.429Z,3.80
2019-05-13T12:00:53.240Z,4.13
2019-05-13T12:06:01.542Z,3.67
2019-05-13T12:11:06.330Z,4.20
2019-05-13T12:16:12.823Z,6.60
2019-05-13T12:21:19.477Z,5.90
2019-05-13T12:26:24.440Z,5.17
2019-05-13T12:31:33.371Z,6.00
2019-05-13T12:36:35.561Z,7.83
2019-05-13T12:41:42.827Z,6.60
2019-05-13T12:46:50.406Z,6.03
2019-05-13T12:52:00.320Z,5.73
2019-05-13T12:56:59.936Z,5.93
2019-05-13T13:02:06.631Z,5.70
2019-05-13T13:07:13.373Z,5.50
2019-05-13T13:12:18.302Z,5.50
2019-05-13T13:17:24.740Z,5.77
2019-05-13T13:22:32.074Z,5.83
2019-05-13T13:28:03.802Z,5.87
2019-05-13T13:32:45.156Z,5.77
2019-05-13T13:37:49.291Z,5.60
2019-05-13T13:42:54.150Z,4.80
2019-05-13T13:48:03.608Z,6.17
2019-05-13T13:53:05.488Z,5.73
2019-05-13T13:58:13.902Z,5.93
2019-05-13T14:03:16.617Z,5.07
2019-05-13T14:08:22.325Z,4.70
2019-05-13T14:13:27.108Z,4.10
2019-05-13T14:18:32.365Z,2.83
2019-05-13T14:23:38.643Z,2.37
2019-05-13T14:28:43.805Z,2.30
2019-05-13T14:33:48.744Z,2.50
2019-05-13T14:38:56.873Z,3.70
2019-05-13T14:44:03.674Z,3.30
2019-05-13T14:49:12.321Z,3.20
2019-05-13T14:54:16.529Z,2.87
2019-05-13T14:59:22.238Z,3.33
2019-05-13T15:04:27.893Z,3.43
2019-05-13T15:09:32.815Z,3.67
2019-05-13T15:14:40.009Z,4.00
2019-05-13T15:19:43.732Z,3.50
2019-05-13T15:24:48.364Z,3.37
2019-05-13T15:29:53.010Z,2.90
2019-05-13T15:34:57.654Z,3.63
2019-05-13T15:40:02.482Z,3.97
2019-05-13T15:45:07.355Z,4.73
2019-05-13T15:50:12.436Z,3.30
2019-05-13T15:55:17.199Z,4.17
2019-05-13T16:00:22.100Z,4.20
2019-05-13T16:05:26.730Z,5.67
2019-05-13T16:10:31.407Z,4.17
2019-05-13T16:15:36.327Z,4.53
2019-05-13T16:20:44.443Z,4.70
2019-05-13T16:25:47.456Z,4.40
2019-05-13T16:30:53.220Z,5.10
2019-05-13T16:35:57.968Z,4.60
2019-05-13T16:41:03.347Z,7.27
2019-05-13T16:46:08.274Z,7.30
2019-05-13T16:51:13.118Z,6.27
2019-05-13T16:56:26.872Z,6.63
2019-05-13T17:01:24.173Z,6.00
2019-05-13T17:06:28.893Z,4.60
2019-05-13T17:11:33.627Z,4.37
2019-05-13T17:16:41.467Z,5.10
2019-05-13T17:21:46.426Z,5.50
2019-05-13T17:26:52.283Z,5.00
2019-05-13T17:31:57.522Z,5.50
2019-05-13T17:37:02.915Z,4.70
2019-05-13T17:42:08.238Z,5.13
2019-05-13T17:47:13.198Z,5.07
2019-05-13T17:52:18.773Z,5.10
2019-05-13T17:57:23.902Z,4.87
2019-05-13T18:02:28.699Z,5.00
2019-05-13T18:07:35.594Z,5.10
2019-05-13T18:12:41.742Z,5.07
2019-05-13T18:17:47.085Z,5.20
2019-05-13T18:22:52.466Z,5.50
2019-05-13T18:28:01.477Z,5.23
2019-05-13T18:33:06.341Z,5.37
2019-05-13T18:38:12.119Z,4.87
2019-05-13T18:43:18.578Z,4.90
2019-05-13T18:48:23.333Z,5.30
2019-05-13T18:53:28.780Z,5.77
2019-05-13T18:58:36.591Z,6.77
2019-05-13T19:03:43.493Z,6.60
2019-05-13T19:08:48.250Z,7.87
2019-05-13T19:13:53.913Z,7.47
2019-05-13T19:19:11.822Z,8.93
2019-05-13T19:24:06.460Z,7.43
2019-05-13T19:29:11.632Z,8.40
2019-05-13T19:34:16.458Z,7.13
2019-05-13T19:39:21.627Z,8.67
2019-05-13T19:44:26.558Z,9.20
2019-05-13T19:49:36.215Z,10.83
2019-05-13T19:54:38.096Z,10.60
2019-05-13T19:59:44.066Z,9.37
2019-05-13T20:04:48.844Z,9.57
2019-05-13T20:09:53.656Z,9.33
2019-05-13T20:14:58.300Z,8.60
2019-05-13T20:20:03.145Z,7.83
2019-05-13T20:25:12.429Z,8.60
2019-05-13T20:30:15.703Z,8.73
2019-05-13T20:35:21.881Z,8.63
2019-05-13T20:40:26.904Z,7.27
2019-05-13T20:45:31.778Z,7.50
2019-05-13T20:50:36.940Z,6.50
2019-05-13T20:55:41.914Z,6.40
2019-05-13T21:00:46.933Z,6.10
2019-05-13T21:05:52.214Z,5.67
2019-05-13T21:10:57.136Z,5.67
2019-05-13T21:16:03.520Z,5.70
2019-05-13T21:21:08.258Z,4.97
2019-05-13T21:26:15.457Z,5.60
2019-05-13T21:31:21.366Z,5.20
2019-05-13T21:36:25.669Z,5.60
2019-05-13T21:41:31.646Z,5.83
2019-05-13T21:46:36.602Z,5.63
2019-05-13T21:51:41.774Z,5.73
2019-05-13T21:56:47.722Z,5.67
2019-05-13T22:01:52.457Z,6.43
2019-05-13T22:06:57.203Z,5.93
2019-05-13T22:12:02.153Z,5.70
2019-05-13T22:17:06.999Z,6.20
2019-05-13T22:22:11.843Z,6.43
2019-05-13T22:27:16.696Z,6.60
2019-05-13T22:32:21.993Z,7.07
2019-05-13T22:37:27.198Z,7.53
2019-05-13T22:42:32.215Z,7.70
2019-05-13T22:47:37.206Z,7.40
2019-05-13T22:52:42.075Z,6.67
2019-05-13T22:57:46.785Z,7.27
2019-05-13T23:02:52.442Z,6.73
2019-05-13T23:07:57.408Z,7.10
2019-05-13T23:13:02.279Z,6.63
2019-05-13T23:18:08.116Z,6.97
2019-05-13T23:23:12.756Z,7.67
2019-05-13T23:28:17.498Z,7.77
2019-05-13T23:33:22.463Z,7.40
2019-05-13T23:38:28.834Z,8.00
2019-05-13T23:43:34.715Z,7.03
2019-05-13T23:48:41.259Z,7.43
2019-05-13T23:53:45.823Z,6.93
2019-05-13T23:58:51.934Z,5.93
